createdAt,value
2022-09-01T00:00:05.847Z,0.00
2022-09-01T00:01:06.165Z,0.00
2022-09-01T00:02:07.462Z,0.00
2022-09-01T00:03:10.634Z,0.00
2022-09-01T00:04:07.088Z,0.00
2022-09-01T00:05:07.365Z,0.00
2022-09-01T00:06:07.672Z,0.00
2022-09-01T00:07:07.978Z,0.00
2022-09-01T00:08:11.235Z,0.00
2022-09-01T00:09:09.605Z,0.00
2022-09-01T00:10:08.838Z,0.00
2022-09-01T00:11:11.030Z,0.00
2022-09-01T00:12:09.403Z,0.00
2022-09-01T00:13:13.565Z,0.00
2022-09-01T00:14:29.579Z,0.00
2022-09-01T00:15:11.312Z,0.00
2022-09-01T00:16:10.599Z,0.00
2022-09-01T00:17:10.793Z,0.00
2022-09-01T00:18:13.087Z,0.00
2022-09-01T00:19:11.863Z,0.00
2022-09-01T00:20:11.963Z,0.00
2022-09-01T00:21:11.946Z,0.00
2022-09-01T00:22:12.252Z,0.00
2022-09-01T00:23:15.427Z,0.00
2022-09-01T00:24:12.835Z,0.00
2022-09-01T00:25:13.143Z,0.00
2022-09-01T00:26:13.457Z,0.00
2022-09-01T00:27:13.767Z,0.00
2022-09-01T00:28:14.945Z,0.00
2022-09-01T00:29:16.293Z,0.00
2022-09-01T00:30:14.555Z,0.00
2022-09-01T00:31:14.928Z,0.00
2022-09-01T00:32:15.124Z,0.00
2022-09-01T00:33:16.258Z,0.00
2022-09-01T00:34:17.636Z,0.00
2022-09-01T00:35:16.014Z,0.00
2022-09-01T00:36:16.336Z,0.00
2022-09-01T00:37:19.947Z,0.00
2022-09-01T00:38:20.167Z,0.00
2022-09-01T00:39:19.779Z,0.00
2022-09-01T00:40:18.483Z,0.00
2022-09-01T00:41:18.819Z,0.00
2022-09-01T00:42:18.976Z,0.00
2022-09-01T00:43:20.417Z,0.00
2022-09-01T00:44:18.825Z,0.00
2022-09-01T00:45:19.969Z,0.00
2022-09-01T00:46:20.508Z,0.00
2022-09-01T00:47:19.734Z,0.00
2022-09-01T00:48:21.913Z,0.00
2022-09-01T00:49:23.061Z,0.00
2022-09-01T00:50:20.571Z,0.00
2022-09-01T00:51:21.700Z,0.00
2022-09-01T00:52:22.115Z,0.00
2022-09-01T00:53:23.450Z,0.00
2022-09-01T00:54:23.626Z,0.00
2022-09-01T00:55:23.113Z,0.00
2022-09-01T00:56:23.266Z,0.00
2022-09-01T00:57:23.681Z,0.00
2022-09-01T00:58:23.169Z,0.00
2022-09-01T00:59:25.239Z,0.00
2022-09-01T01:00:25.404Z,0.00
2022-09-01T01:01:23.927Z,0.00
2022-09-01T01:02:24.339Z,0.00
2022-09-01T01:03:24.483Z,0.00
2022-09-01T01:04:26.662Z,0.00
2022-09-01T01:05:25.857Z,0.00
2022-09-01T01:06:25.354Z,0.00
2022-09-01T01:07:26.675Z,0.00
2022-09-01T01:08:27.829Z,0.00
2022-09-01T01:09:27.993Z,0.00
2022-09-01T01:10:28.179Z,0.00
2022-09-01T01:11:28.349Z,0.00
2022-09-01T01:12:29.009Z,0.00
2022-09-01T01:13:29.178Z,0.00
2022-09-01T01:14:29.329Z,0.00
2022-09-01T01:15:29.687Z,0.00
2022-09-01T01:16:30.245Z,0.00
2022-09-01T01:17:30.404Z,0.00
2022-09-01T01:18:30.589Z,0.00
2022-09-01T01:19:30.782Z,0.00
2022-09-01T01:20:32.483Z,0.00
2022-09-01T01:21:31.364Z,0.00
2022-09-01T01:22:32.034Z,0.00
2022-09-01T01:23:32.182Z,0.00
2022-09-01T01:24:32.379Z,0.00
2022-09-01T01:25:32.563Z,0.00
2022-09-01T01:26:33.265Z,0.00
2022-09-01T01:27:33.601Z,0.00
2022-09-01T01:28:33.672Z,0.00
2022-09-01T01:29:33.859Z,0.00
2022-09-01T01:30:34.126Z,0.00
2022-09-01T01:31:34.734Z,0.00
2022-09-01T01:32:33.989Z,0.00
2022-09-01T01:33:35.202Z,0.00
2022-09-01T01:34:35.383Z,0.00
2022-09-01T01:35:35.592Z,0.00
2022-09-01T01:36:35.774Z,0.00
2022-09-01T01:37:35.205Z,0.00
2022-09-01T01:38:36.658Z,0.00
2022-09-01T01:39:35.057Z,0.00
2022-09-01T01:40:35.420Z,0.00
2022-09-01T01:41:37.554Z,0.00
2022-09-01T01:42:38.919Z,0.00
2022-09-01T01:43:36.206Z,0.00
2022-09-01T01:44:36.519Z,0.00
2022-09-01T01:45:36.875Z,0.00
2022-09-01T01:46:40.979Z,0.00
2022-09-01T01:47:38.337Z,0.00
2022-09-01T01:48:37.718Z,0.00
2022-09-01T01:49:38.045Z,0.00
2022-09-01T01:50:38.348Z,0.00
2022-09-01T01:51:42.519Z,0.00
2022-09-01T01:52:41.890Z,0.00
2022-09-01T01:53:39.279Z,0.00
2022-09-01T01:54:39.576Z,0.00
2022-09-01T01:55:41.807Z,0.00
2022-09-01T01:56:41.948Z,0.00
2022-09-01T01:57:41.942Z,0.00
2022-09-01T01:58:40.690Z,0.00
2022-09-01T01:59:41.001Z,0.00
2022-09-01T02:00:41.307Z,0.00
2022-09-01T02:01:43.554Z,0.00
2022-09-01T02:02:45.759Z,0.00
2022-09-01T02:03:42.268Z,0.00
2022-09-01T02:04:42.576Z,0.00
2022-09-01T02:05:44.760Z,0.00
2022-09-01T02:06:44.949Z,0.00
2022-09-01T02:07:44.354Z,0.00
2022-09-01T02:08:45.715Z,0.00
2022-09-01T02:09:43.981Z,0.00
2022-09-01T02:10:44.287Z,0.00
2022-09-01T02:11:46.482Z,0.00
2022-09-01T02:12:48.634Z,0.00
2022-09-01T02:13:45.180Z,0.00
2022-09-01T02:14:45.489Z,0.00
2022-09-01T02:15:45.802Z,0.00
2022-09-01T02:16:48.090Z,0.00
2022-09-01T02:17:48.373Z,0.00
2022-09-01T02:18:46.633Z,0.00
2022-09-01T02:19:46.939Z,0.00
2022-09-01T02:20:47.250Z,0.00
2022-09-01T02:21:50.444Z,0.00
2022-09-01T02:22:51.164Z,0.00
2022-09-01T02:23:48.085Z,0.00
2022-09-01T02:24:49.384Z,0.00
2022-09-01T02:26:14.447Z,0.00
2022-09-01T02:26:49.998Z,0.00
2022-09-01T02:27:49.412Z,0.00
2022-09-01T02:28:54.677Z,0.00
2022-09-01T02:29:50.910Z,0.00
2022-09-01T02:30:52.190Z,0.00
2022-09-01T02:31:53.745Z,0.00
2022-09-01T02:32:53.736Z,0.00
2022-09-01T02:33:51.027Z,0.00
2022-09-01T02:34:54.636Z,0.00
2022-09-01T02:35:52.676Z,0.00
2022-09-01T02:36:51.920Z,0.00
2022-09-01T02:37:54.285Z,0.00
2022-09-01T02:38:56.740Z,0.00
2022-09-01T02:39:52.854Z,0.00
2022-09-01T02:40:53.985Z,0.00
2022-09-01T02:41:54.404Z,0.00
2022-09-01T02:42:56.877Z,0.00
2022-09-01T02:43:56.847Z,0.00
2022-09-01T02:44:55.399Z,0.00
2022-09-01T02:45:55.613Z,0.00
2022-09-01T02:46:55.713Z,0.00
2022-09-01T02:47:56.129Z,0.00
2022-09-01T02:48:57.481Z,0.00
2022-09-01T02:49:56.707Z,0.00
2022-09-01T02:50:56.073Z,0.00
2022-09-01T02:51:56.397Z,0.00
2022-09-01T02:53:03.353Z,0.00
2022-09-01T02:53:58.775Z,0.00
2022-09-01T02:54:58.938Z,0.00
2022-09-01T02:55:57.577Z,0.00
2022-09-01T02:56:57.916Z,0.00
2022-09-01T02:58:02.091Z,0.00
2022-09-01T02:59:00.313Z,0.00
2022-09-01T02:59:58.828Z,0.00
2022-09-01T03:01:01.024Z,0.00
2022-09-01T03:02:01.179Z,0.00
2022-09-01T03:03:02.630Z,0.00
2022-09-01T03:04:01.580Z,0.00
2022-09-01T03:05:00.425Z,0.00
2022-09-01T03:06:00.698Z,0.00
2022-09-01T03:07:00.879Z,0.00
2022-09-01T03:08:02.147Z,0.00
2022-09-01T03:09:03.500Z,0.00
2022-09-01T03:10:03.681Z,0.00
2022-09-01T03:11:03.875Z,0.00
2022-09-01T03:12:02.531Z,0.00
2022-09-01T03:13:06.712Z,0.00
2022-09-01T03:14:04.937Z,0.00
2022-09-01T03:15:05.133Z,0.00
2022-09-01T03:16:05.379Z,0.00
2022-09-01T03:17:05.511Z,0.00
2022-09-01T03:18:07.332Z,0.00
2022-09-01T03:19:06.380Z,0.00
2022-09-01T03:20:06.567Z,0.00
2022-09-01T03:21:06.761Z,0.00
2022-09-01T03:22:07.447Z,0.00
2022-09-01T03:23:08.910Z,0.00
2022-09-01T03:24:07.831Z,0.00
2022-09-01T03:25:06.469Z,0.00
2022-09-01T03:26:08.631Z,0.00
2022-09-01T03:27:07.018Z,0.00
2022-09-01T03:28:11.183Z,0.00
2022-09-01T03:29:09.413Z,0.00
2022-09-01T03:30:07.926Z,0.00
2022-09-01T03:31:10.114Z,0.00
2022-09-01T03:32:09.560Z,0.00
2022-09-01T03:33:11.783Z,0.00
2022-09-01T03:34:10.921Z,0.00
2022-09-01T03:35:11.101Z,0.00
2022-09-01T03:36:15.396Z,0.00
2022-09-01T03:37:10.863Z,0.00
2022-09-01T03:38:11.041Z,0.00
2022-09-01T03:39:16.502Z,0.00
2022-09-01T03:40:10.848Z,0.00
2022-09-01T03:41:11.120Z,0.00
2022-09-01T03:42:11.440Z,0.00
2022-09-01T03:43:12.610Z,0.00
2022-09-01T03:44:14.065Z,0.00
2022-09-01T03:45:12.336Z,0.00
2022-09-01T03:46:12.669Z,0.00
2022-09-01T03:47:12.956Z,0.00
2022-09-01T03:48:17.137Z,0.00
2022-09-01T03:49:15.584Z,0.00
2022-09-01T03:50:13.786Z,0.00
2022-09-01T03:51:17.947Z,0.00
2022-09-01T03:52:16.175Z,4.00
2022-09-01T03:53:17.551Z,4.00
2022-09-01T03:54:14.944Z,0.00
2022-09-01T03:55:17.149Z,4.00
2022-09-01T03:56:15.523Z,4.00
2022-09-01T03:57:17.715Z,4.00
2022-09-01T03:58:18.900Z,4.00
2022-09-01T03:59:16.423Z,4.00
2022-09-01T04:00:18.600Z,8.00
2022-09-01T04:01:17.145Z,8.00
2022-09-01T04:02:17.289Z,8.00
2022-09-01T04:03:18.368Z,12.00
2022-09-01T04:04:18.766Z,12.00
2022-09-01T04:05:19.957Z,16.00
2022-09-01T04:06:18.353Z,20.00
2022-09-01T04:07:19.374Z,20.00
2022-09-01T04:08:20.496Z,28.00
2022-09-01T04:09:19.277Z,32.00
2022-09-01T04:10:21.458Z,36.00
2022-09-01T04:11:21.646Z,40.00
2022-09-01T04:12:21.836Z,48.00
2022-09-01T04:13:20.488Z,56.00
2022-09-01T04:14:20.814Z,64.00
2022-09-01T04:15:24.468Z,76.00
2022-09-01T04:16:21.414Z,84.00
2022-09-01T04:17:24.680Z,96.00
2022-09-01T04:18:22.021Z,108.00
2022-09-01T04:19:24.087Z,124.00
2022-09-01T04:20:24.264Z,144.00
2022-09-01T04:21:22.811Z,164.00
2022-09-01T04:22:23.142Z,184.00
2022-09-01T04:23:23.485Z,204.00
2022-09-01T04:24:23.829Z,228.00
2022-09-01T04:25:26.019Z,256.00
2022-09-01T04:26:27.650Z,280.00
2022-09-01T04:27:24.711Z,308.00
2022-09-01T04:28:28.321Z,340.00
2022-09-01T04:29:26.370Z,376.00
2022-09-01T04:30:26.530Z,408.00
2022-09-01T04:31:29.378Z,444.00
2022-09-01T04:32:27.106Z,484.00
2022-09-01T04:33:29.921Z,524.00
2022-09-01T04:34:27.681Z,564.00
2022-09-01T04:35:27.089Z,604.00
2022-09-01T04:36:29.271Z,648.00
2022-09-01T04:37:27.679Z,692.00
2022-09-01T04:38:29.886Z,740.00
2022-09-01T04:39:30.074Z,788.00
2022-09-01T04:40:28.645Z,836.00
2022-09-01T04:41:28.951Z,884.00
2022-09-01T04:42:29.700Z,936.00
2022-09-01T04:43:29.593Z,988.00
2022-09-01T04:44:29.809Z,1036.00
2022-09-01T04:45:32.057Z,1088.00
2022-09-01T04:46:30.349Z,1144.00
2022-09-01T04:47:35.425Z,1196.00
2022-09-01T04:48:30.905Z,1252.00
2022-09-01T04:49:33.092Z,1304.00
2022-09-01T04:50:33.279Z,1360.00
2022-09-01T04:51:33.470Z,1412.00
2022-09-01T04:52:35.942Z,1468.00
2022-09-01T04:53:32.272Z,1520.00
2022-09-01T04:54:34.471Z,1572.00
2022-09-01T04:55:32.776Z,1628.00
2022-09-01T04:56:33.003Z,1680.00
2022-09-01T04:57:34.177Z,1728.00
2022-09-01T04:58:35.559Z,1784.00
2022-09-01T04:59:34.760Z,1836.00
2022-09-01T05:00:35.253Z,1892.00
2022-09-01T05:01:34.533Z,1944.00
2022-09-01T05:02:37.813Z,1996.00
2022-09-01T05:03:36.960Z,2044.00
2022-09-01T05:04:37.141Z,2096.00
2022-09-01T05:05:37.342Z,2140.00
2022-09-01T05:06:37.496Z,2192.00
2022-09-01T05:07:38.190Z,2252.00
2022-09-01T05:08:38.375Z,2304.00
2022-09-01T05:09:38.570Z,2364.00
2022-09-01T05:10:39.013Z,2428.00
2022-09-01T05:11:39.403Z,2492.00
2022-09-01T05:12:39.575Z,2552.00
2022-09-01T05:13:38.002Z,2696.00
2022-09-01T05:14:40.253Z,2856.00
2022-09-01T05:15:38.576Z,2904.00
2022-09-01T05:16:40.841Z,3020.00
2022-09-01T05:17:39.138Z,3176.00
2022-09-01T05:18:39.349Z,3308.00
2022-09-01T05:19:39.587Z,3396.00
2022-09-01T05:20:41.774Z,3432.00
2022-09-01T05:21:40.076Z,3512.00
2022-09-01T05:22:42.244Z,3648.00
2022-09-01T05:23:40.582Z,3720.00
2022-09-01T05:24:42.738Z,3756.00
2022-09-01T05:25:42.927Z,3800.00
2022-09-01T05:26:43.132Z,4028.00
2022-09-01T05:27:41.698Z,4168.00
2022-09-01T05:28:41.918Z,4280.00
2022-09-01T05:29:42.157Z,4356.00
2022-09-01T05:30:46.298Z,4432.00
2022-09-01T05:31:42.705Z,4544.00
2022-09-01T05:32:43.911Z,4708.00
2022-09-01T05:33:43.206Z,4928.00
2022-09-01T05:34:43.435Z,5144.00
2022-09-01T05:35:45.623Z,5288.00
2022-09-01T05:36:47.779Z,5524.00
2022-09-01T05:37:46.010Z,5880.00
2022-09-01T05:38:44.561Z,6112.00
2022-09-01T05:39:44.799Z,6284.00
2022-09-01T05:40:45.114Z,6628.00
2022-09-01T05:41:46.340Z,7148.00
2022-09-01T05:42:45.630Z,7516.00
2022-09-01T05:43:47.888Z,7796.00
2022-09-01T05:44:46.187Z,7700.00
2022-09-01T05:46:05.632Z,8188.00
2022-09-01T05:46:49.194Z,8580.00
2022-09-01T05:47:46.983Z,8744.00
2022-09-01T05:48:49.155Z,8480.00
2022-09-01T05:49:47.458Z,8952.00
2022-09-01T05:50:47.678Z,9596.00
2022-09-01T05:51:50.890Z,9564.00
2022-09-01T05:52:49.287Z,9512.00
2022-09-01T05:53:48.566Z,9632.00
2022-09-01T05:54:49.830Z,9916.00
2022-09-01T05:55:50.996Z,10140.00
2022-09-01T05:56:50.932Z,9424.00
2022-09-01T05:57:51.658Z,8932.00
2022-09-01T05:59:51.190Z,11176.00
2022-09-01T06:00:52.382Z,11088.00
2022-09-01T06:01:52.359Z,10596.00
2022-09-01T06:02:53.252Z,10248.00
2022-09-01T06:03:51.353Z,9396.00
2022-09-01T06:04:51.580Z,10224.00
2022-09-01T06:05:53.766Z,10856.00
2022-09-01T06:07:06.685Z,10580.00
2022-09-01T06:07:55.273Z,10696.00
2022-09-01T06:08:52.741Z,10748.00
2022-09-01T06:09:52.975Z,10132.00
2022-09-01T06:10:55.149Z,9924.00
2022-09-01T06:11:54.934Z,10196.00
2022-09-01T06:12:55.674Z,10700.00
2022-09-01T06:13:55.436Z,10648.00
2022-09-01T06:14:54.231Z,10320.00
2022-09-01T06:15:57.921Z,10012.00
2022-09-01T06:16:55.519Z,10276.00
2022-09-01T06:17:56.904Z,10516.00
2022-09-01T06:18:55.208Z,10976.00
2022-09-01T06:19:55.545Z,10680.00
2022-09-01T06:20:57.723Z,9732.00
2022-09-01T06:21:56.840Z,9820.00
2022-09-01T06:22:58.222Z,10628.00
2022-09-01T06:23:56.530Z,11256.00
2022-09-01T06:25:01.055Z,11684.00
2022-09-01T06:25:58.074Z,11880.00
2022-09-01T06:27:00.650Z,11564.00
2022-09-01T06:27:57.476Z,11264.00
2022-09-01T06:28:59.667Z,11136.00
2022-09-01T06:29:57.991Z,10984.00
2022-09-01T06:30:59.191Z,11300.00
2022-09-01T06:32:01.332Z,11900.00
2022-09-01T06:32:58.770Z,11500.00
2022-09-01T06:34:02.089Z,11180.00
2022-09-01T06:35:02.630Z,11576.00
2022-09-01T06:36:02.791Z,11904.00
2022-09-01T06:37:01.494Z,11832.00
2022-09-01T06:38:00.179Z,12304.00
2022-09-01T06:39:04.323Z,12132.00
2022-09-01T06:40:01.555Z,11884.00
2022-09-01T06:41:04.337Z,12560.00
2022-09-01T06:42:05.777Z,12816.00
2022-09-01T06:43:02.502Z,12328.00
2022-09-01T06:44:04.713Z,11708.00
2022-09-01T06:45:03.898Z,11796.00
2022-09-01T06:46:04.078Z,10592.00
2022-09-01T06:47:04.351Z,12096.00
2022-09-01T06:48:03.808Z,13516.00
2022-09-01T06:49:07.056Z,13456.00
2022-09-01T06:50:04.384Z,14364.00
2022-09-01T06:51:22.014Z,14496.00
2022-09-01T06:52:04.893Z,13060.00
2022-09-01T06:54:10.839Z,14508.00
2022-09-01T06:55:07.786Z,14544.00
2022-09-01T06:56:08.296Z,13920.00
2022-09-01T06:58:07.465Z,16032.00
2022-09-01T06:59:08.905Z,16544.00
2022-09-01T07:00:07.008Z,16224.00
2022-09-01T07:01:07.171Z,15460.00
2022-09-01T07:02:11.446Z,15808.00
2022-09-01T07:03:07.850Z,17280.00
2022-09-01T07:04:12.722Z,18784.00
2022-09-01T07:05:58.370Z,18784.00
2022-09-01T07:06:09.680Z,17888.00
2022-09-01T07:08:09.272Z,20864.00
2022-09-01T07:09:38.870Z,24576.00
2022-09-01T07:10:20.972Z,26848.00
2022-09-01T07:12:25.490Z,22944.00
2022-09-01T07:13:10.671Z,18784.00
2022-09-01T07:14:15.698Z,16992.00
2022-09-01T07:17:27.128Z,15584.00
2022-09-01T07:18:11.980Z,15316.00
2022-09-01T07:19:12.097Z,14996.00
2022-09-01T07:20:28.881Z,14636.00
2022-09-01T07:22:35.797Z,14372.00
2022-09-01T07:23:13.339Z,14372.00
2022-09-01T07:24:14.113Z,14388.00
2022-09-01T07:25:16.698Z,14432.00
2022-09-01T07:26:24.684Z,14432.00
2022-09-01T07:27:16.317Z,14440.00
2022-09-01T07:28:15.935Z,14276.00
2022-09-01T07:29:17.026Z,14228.00
2022-09-01T07:30:14.220Z,14272.00
2022-09-01T07:35:16.532Z,16036.00
2022-09-01T07:36:25.607Z,16164.00
2022-09-01T07:43:18.819Z,22880.00
2022-09-01T07:44:19.856Z,21760.00
2022-09-01T07:45:28.202Z,20864.00
2022-09-01T07:46:37.330Z,21088.00
2022-09-01T07:47:52.342Z,21792.00
2022-09-01T07:48:36.633Z,22752.00
2022-09-01T07:50:08.481Z,23680.00
2022-09-01T07:51:38.498Z,29568.00
2022-09-01T07:52:22.607Z,33696.00
2022-09-01T07:53:20.627Z,37216.00
2022-09-01T07:54:22.650Z,38240.00
2022-09-01T07:55:21.099Z,36032.00
2022-09-01T07:56:21.344Z,36640.00
2022-09-01T07:57:21.583Z,37280.00
2022-09-01T07:58:23.764Z,37728.00
2022-09-01T07:59:23.976Z,38912.00
2022-09-01T08:00:22.421Z,39872.00
2022-09-01T08:01:24.643Z,40064.00
2022-09-01T08:02:22.961Z,40384.00
2022-09-01T08:03:23.396Z,40384.00
2022-09-01T08:04:23.507Z,40896.00
2022-09-01T08:05:23.757Z,41952.00
2022-09-01T08:06:26.050Z,42720.00
2022-09-01T08:07:25.154Z,43808.00
2022-09-01T08:08:28.998Z,44096.00
2022-09-01T08:09:37.645Z,44608.00
2022-09-01T08:10:26.096Z,44864.00
2022-09-01T08:11:58.204Z,44704.00
2022-09-01T08:12:29.588Z,45120.00
2022-09-01T08:13:26.047Z,45280.00
2022-09-01T08:14:33.725Z,46368.00
2022-09-01T08:16:06.696Z,46272.00
2022-09-01T08:16:39.366Z,46080.00
2022-09-01T08:17:51.168Z,45344.00
2022-09-01T08:18:48.120Z,44288.00
2022-09-01T08:19:28.537Z,44640.00
2022-09-01T08:20:27.837Z,46944.00
2022-09-01T08:21:28.092Z,47488.00
2022-09-01T08:22:28.330Z,48320.00
2022-09-01T08:23:32.483Z,21888.00
2022-09-01T08:24:28.823Z,50304.00
2022-09-01T08:25:29.060Z,29920.00
2022-09-01T08:26:29.303Z,46304.00
2022-09-01T08:27:29.551Z,39264.00
2022-09-01T08:28:32.040Z,35904.00
2022-09-01T08:29:30.682Z,38432.00
2022-09-01T08:30:30.345Z,42560.00
2022-09-01T08:31:31.091Z,48064.00
2022-09-01T08:32:30.810Z,51872.00
2022-09-01T08:33:34.988Z,54080.00
2022-09-01T08:34:33.227Z,21152.00
2022-09-01T08:35:31.675Z,16244.00
2022-09-01T08:36:31.914Z,30496.00
2022-09-01T08:37:34.108Z,42208.00
2022-09-01T08:38:35.498Z,56960.00
2022-09-01T08:39:32.695Z,17068.00
2022-09-01T08:40:32.981Z,15264.00
2022-09-01T08:41:35.031Z,15456.00
2022-09-01T08:42:34.440Z,16516.00
2022-09-01T08:43:36.809Z,17064.00
2022-09-01T08:44:35.807Z,18976.00
2022-09-01T08:45:34.241Z,20992.00
2022-09-01T08:46:34.535Z,44640.00
2022-09-01T08:47:49.220Z,25312.00
2022-09-01T08:49:23.719Z,23008.00
2022-09-01T08:49:43.058Z,20576.00
2022-09-01T08:50:36.545Z,17600.00
2022-09-01T08:51:37.733Z,21920.00
2022-09-01T08:52:36.162Z,20224.00
2022-09-01T08:53:40.343Z,38816.00
2022-09-01T08:54:36.670Z,17920.00
2022-09-01T08:55:36.920Z,17048.00
2022-09-01T08:56:39.098Z,16708.00
2022-09-01T08:57:37.416Z,15112.00
2022-09-01T08:58:39.653Z,14416.00
2022-09-01T08:59:38.999Z,14688.00
2022-09-01T09:00:38.172Z,14740.00
2022-09-01T09:01:40.405Z,14532.00
2022-09-01T09:02:40.613Z,13980.00
2022-09-01T09:03:42.132Z,13088.00
2022-09-01T09:04:40.167Z,12376.00
2022-09-01T09:05:40.324Z,11520.00
2022-09-01T09:06:39.756Z,10844.00
2022-09-01T09:07:40.902Z,10484.00
2022-09-01T09:08:44.279Z,9964.00
2022-09-01T09:09:40.605Z,9572.00
2022-09-01T09:10:44.749Z,9432.00
2022-09-01T09:11:42.058Z,9148.00
2022-09-01T09:12:51.426Z,9176.00
2022-09-01T09:13:44.678Z,9524.00
2022-09-01T09:14:42.787Z,10192.00
2022-09-01T09:15:43.276Z,10712.00
2022-09-01T09:16:43.363Z,10956.00
2022-09-01T09:17:44.720Z,11060.00
2022-09-01T09:19:01.847Z,10936.00
2022-09-01T09:19:44.311Z,11040.00
2022-09-01T09:20:44.519Z,11472.00
2022-09-01T09:21:44.713Z,12292.00
2022-09-01T09:22:45.091Z,13332.00
2022-09-01T09:23:47.491Z,14200.00
2022-09-01T09:24:45.678Z,14744.00
2022-09-01T09:25:45.828Z,14688.00
2022-09-01T09:26:45.295Z,15040.00
2022-09-01T09:27:47.440Z,15908.00
2022-09-01T09:28:46.564Z,17600.00
2022-09-01T09:29:46.001Z,18208.00
2022-09-01T09:30:46.297Z,21088.00
2022-09-01T09:31:46.486Z,20160.00
2022-09-01T09:33:19.957Z,21408.00
2022-09-01T09:33:52.679Z,21792.00
2022-09-01T09:34:47.221Z,21760.00
2022-09-01T09:35:49.415Z,20128.00
2022-09-01T09:36:54.000Z,18944.00
2022-09-01T09:37:50.922Z,18272.00
2022-09-01T09:38:51.237Z,18016.00
2022-09-01T09:39:50.319Z,18272.00
2022-09-01T09:41:13.878Z,19392.00
2022-09-01T09:41:50.659Z,20608.00
2022-09-01T09:42:53.227Z,21696.00
2022-09-01T09:43:51.738Z,22112.00
2022-09-01T09:44:49.925Z,22208.00
2022-09-01T09:45:52.157Z,22336.00
2022-09-01T09:46:52.305Z,22080.00
2022-09-01T09:47:50.732Z,21536.00
2022-09-01T09:48:52.959Z,20960.00
2022-09-01T09:49:53.198Z,20448.00
2022-09-01T09:50:53.432Z,20256.00
2022-09-01T09:51:51.861Z,20256.00
2022-09-01T09:52:53.975Z,20800.00
2022-09-01T09:53:54.444Z,21440.00
2022-09-01T09:54:54.619Z,22688.00
2022-09-01T09:55:56.240Z,24256.00
2022-09-01T09:56:55.009Z,25312.00
2022-09-01T09:57:55.206Z,25856.00
2022-09-01T09:58:55.751Z,26048.00
2022-09-01T10:00:00.669Z,26400.00
2022-09-01T10:00:57.235Z,27488.00
2022-09-01T10:01:54.558Z,29408.00
2022-09-01T10:02:56.743Z,32448.00
2022-09-01T10:03:56.570Z,31072.00
2022-09-01T10:04:56.022Z,30816.00
2022-09-01T10:05:57.548Z,29696.00
2022-09-01T10:06:55.979Z,28928.00
2022-09-01T10:07:56.265Z,28096.00
2022-09-01T10:09:00.434Z,27584.00
2022-09-01T10:09:56.730Z,27040.00
2022-09-01T10:10:58.997Z,26368.00
2022-09-01T10:11:57.265Z,25760.00
2022-09-01T10:12:57.540Z,25376.00
2022-09-01T10:14:00.677Z,25216.00
2022-09-01T10:15:00.534Z,24800.00
2022-09-01T10:16:00.111Z,24544.00
2022-09-01T10:17:00.709Z,24224.00
2022-09-01T10:19:00.212Z,23936.00
2022-09-01T10:20:01.406Z,23936.00
2022-09-01T10:20:59.844Z,23488.00
2022-09-01T10:22:02.034Z,22592.00
2022-09-01T10:23:03.801Z,21760.00
2022-09-01T10:25:03.321Z,20448.00
2022-09-01T10:26:01.316Z,20256.00
2022-09-01T10:27:03.956Z,20160.00
2022-09-01T10:28:03.410Z,20352.00
2022-09-01T10:29:04.131Z,20544.00
2022-09-01T10:30:20.411Z,20800.00
2022-09-01T10:31:03.743Z,21088.00
2022-09-01T10:32:30.765Z,21568.00
2022-09-01T10:33:15.581Z,21888.00
2022-09-01T10:34:06.516Z,22432.00
2022-09-01T10:35:05.701Z,23008.00
2022-09-01T10:36:06.987Z,23296.00
2022-09-01T10:37:04.411Z,23040.00
2022-09-01T10:38:06.562Z,22144.00
2022-09-01T10:39:09.109Z,21120.00
2022-09-01T10:40:07.121Z,20256.00
2022-09-01T10:41:05.590Z,19680.00
2022-09-01T10:42:07.727Z,19328.00
2022-09-01T10:43:12.459Z,18976.00
2022-09-01T10:44:06.357Z,18720.00
2022-09-01T10:45:08.550Z,18784.00
2022-09-01T10:46:09.241Z,19392.00
2022-09-01T10:47:13.918Z,20384.00
2022-09-01T10:48:08.552Z,21248.00
2022-09-01T10:49:08.097Z,21792.00
2022-09-01T10:50:10.365Z,22752.00
2022-09-01T10:51:08.269Z,24224.00
2022-09-01T10:52:13.950Z,26016.00
2022-09-01T10:53:10.632Z,27968.00
2022-09-01T10:54:09.067Z,29600.00
2022-09-01T10:55:11.224Z,31232.00
2022-09-01T10:56:20.074Z,30464.00
2022-09-01T10:57:12.716Z,32768.00
2022-09-01T10:59:31.137Z,30720.00
2022-09-01T11:00:34.906Z,26464.00
2022-09-01T11:01:13.437Z,24512.00
2022-09-01T11:02:34.752Z,22976.00
2022-09-01T11:04:12.725Z,22208.00
2022-09-01T11:05:11.927Z,22336.00
2022-09-01T11:06:13.149Z,22528.00
2022-09-01T11:07:12.671Z,23008.00
2022-09-01T11:08:16.042Z,23616.00
2022-09-01T11:09:12.987Z,24384.00
2022-09-01T11:10:31.212Z,25152.00
2022-09-01T11:11:16.441Z,25024.00
2022-09-01T11:12:14.561Z,24576.00
2022-09-01T11:13:15.968Z,23904.00
2022-09-01T11:14:15.139Z,23424.00
2022-09-01T11:15:16.995Z,23392.00
2022-09-01T11:16:15.815Z,23584.00
2022-09-01T11:17:15.930Z,23680.00
2022-09-01T11:18:18.767Z,23328.00
2022-09-01T11:19:16.450Z,23104.00
2022-09-01T11:20:18.087Z,22848.00
2022-09-01T11:21:16.234Z,22496.00
2022-09-01T11:22:16.495Z,23232.00
2022-09-01T11:23:20.305Z,21760.00
2022-09-01T11:24:17.070Z,24640.00
2022-09-01T11:25:19.224Z,31040.00
2022-09-01T11:26:20.040Z,29056.00
2022-09-01T11:27:19.016Z,93312.00
2022-09-01T11:28:20.339Z,81920.00
2022-09-01T11:29:19.587Z,93216.00
2022-09-01T11:30:22.197Z,87040.00
2022-09-01T11:31:20.239Z,93440.00
2022-09-01T11:32:22.447Z,86496.00
2022-09-01T11:33:21.626Z,97760.00
2022-09-01T11:34:19.935Z,75520.00
2022-09-01T11:35:21.128Z,86432.00
2022-09-01T11:36:22.402Z,33856.00
2022-09-01T11:37:21.638Z,85344.00
2022-09-01T11:38:22.874Z,52768.00
2022-09-01T11:39:21.181Z,52128.00
2022-09-01T11:40:21.481Z,84992.00
2022-09-01T11:41:21.741Z,90688.00
2022-09-01T11:42:23.949Z,101600.00
2022-09-01T11:43:24.171Z,90592.00
2022-09-01T11:44:23.535Z,84032.00
2022-09-01T11:45:23.683Z,86432.00
2022-09-01T11:46:25.041Z,86656.00
2022-09-01T11:47:24.880Z,46720.00
2022-09-01T11:48:25.689Z,28832.00
2022-09-01T11:49:24.000Z,24576.00
2022-09-01T11:50:24.244Z,21408.00
2022-09-01T11:51:24.489Z,19616.00
2022-09-01T11:52:25.568Z,19424.00
2022-09-01T11:53:25.943Z,19808.00
2022-09-01T11:54:27.132Z,20032.00
2022-09-01T11:55:27.322Z,20544.00
2022-09-01T11:56:27.548Z,20960.00
2022-09-01T11:57:28.936Z,21312.00
2022-09-01T11:58:27.972Z,22016.00
2022-09-01T11:59:28.636Z,23072.00
2022-09-01T12:00:28.791Z,24160.00
2022-09-01T12:01:28.956Z,25472.00
2022-09-01T12:02:30.071Z,26368.00
2022-09-01T12:03:29.459Z,26816.00
2022-09-01T12:04:29.012Z,26752.00
2022-09-01T12:05:30.205Z,26176.00
2022-09-01T12:06:30.388Z,25760.00
2022-09-01T12:07:29.761Z,25664.00
2022-09-01T12:08:31.133Z,25728.00
2022-09-01T12:09:29.446Z,25664.00
2022-09-01T12:10:29.690Z,25888.00
2022-09-01T12:11:31.879Z,26336.00
2022-09-01T12:12:33.143Z,26624.00
2022-09-01T12:13:32.379Z,26944.00
2022-09-01T12:14:48.780Z,27392.00
2022-09-01T12:15:32.051Z,27712.00
2022-09-01T12:16:31.393Z,28224.00
2022-09-01T12:17:35.512Z,29088.00
2022-09-01T12:18:33.731Z,30656.00
2022-09-01T12:19:32.188Z,36576.00
2022-09-01T12:20:33.379Z,35936.00
2022-09-01T12:21:34.203Z,58528.00
2022-09-01T12:22:33.039Z,45600.00
2022-09-01T12:23:35.228Z,55424.00
2022-09-01T12:24:33.538Z,35328.00
2022-09-01T12:25:37.694Z,100064.00
2022-09-01T12:26:35.896Z,32512.00
2022-09-01T12:27:34.348Z,31456.00
2022-09-01T12:28:36.518Z,31424.00
2022-09-01T12:29:34.833Z,34528.00
2022-09-01T12:30:39.002Z,34976.00
2022-09-01T12:31:37.269Z,31616.00
2022-09-01T12:32:35.561Z,33952.00
2022-09-01T12:33:36.025Z,40192.00
2022-09-01T12:34:37.985Z,38880.00
2022-09-01T12:35:38.339Z,28640.00
2022-09-01T12:36:38.407Z,29088.00
2022-09-01T12:37:36.946Z,30752.00
2022-09-01T12:38:37.198Z,32160.00
2022-09-01T12:39:39.405Z,92512.00
2022-09-01T12:40:38.674Z,96544.00
2022-09-01T12:41:39.939Z,90624.00
2022-09-01T12:42:44.715Z,89152.00
2022-09-01T12:43:38.596Z,87040.00
2022-09-01T12:44:39.542Z,89568.00